Time,TemperatureF,DewpointF,PressureIn,WindDirection,WindDirectionDegrees,WindSpeedMPH,WindSpeedGustMPH,Humidity,HourlyPrecipIn,Conditions,Clouds,dailyrainin,SoftwareType,DateUTC
2013-08-01 00:00:00,72.2,68.4,30.04,NNW,338,0.9,0.9,88,0.08,,,0.00,WUHU216HW,2013-08-01 04:00:00,
2013-08-01 00:01:00,72.2,68.4,30.04,NNW,338,0.9,0.9,88,0.08,,,0.00,WUHU216HW,2013-08-01 04:01:00,
2013-08-01 00:02:00,72.2,68.4,30.04,NNW,338,0.9,0.9,88,0.08,,,0.00,WUHU216HW,2013-08-01 04:02:00,
2013-08-01 00:07:00,72.2,68.4,30.04,NNW,338,0.9,0.9,88,0.08,,,0.00,WUHU216HW,2013-08-01 04:07:00,
2013-08-01 00:30:00,71.5,67.7,30.04,ESE,113,0.4,0.4,88,0.12,,,0.00,WUHU216HW,2013-08-01 04:30:00,
2013-08-01 00:35:00,71.5,67.7,30.04,ESE,113,0.4,0.4,88,0.12,,,0.00,WUHU216HW,2013-08-01 04:35:00,
2013-08-01 01:00:00,71.3,67.9,30.03,North,0,0.0,0.0,89,0.17,,,0.09,WUHU216HW,2013-08-01 05:00:00,
2013-08-01 01:05:00,71.3,67.9,30.03,North,0,0.0,0.0,89,0.17,,,0.09,WUHU216HW,2013-08-01 05:05:00,
2013-08-01 01:30:00,71.1,67.7,30.02,East,90,0.0,0.0,89,0.13,,,0.18,WUHU216HW,2013-08-01 05:30:00,
2013-08-01 01:35:00,71.1,67.7,30.02,East,90,0.0,0.0,89,0.13,,,0.18,WUHU216HW,2013-08-01 05:35:00,
2013-08-01 02:00:00,71.3,67.9,30.01,SE,135,0.4,0.4,89,0.09,,,0.23,WUHU216HW,2013-08-01 06:00:00,
2013-08-01 02:05:00,71.3,67.9,30.01,SE,135,0.4,0.4,89,0.09,,,0.23,WUHU216HW,2013-08-01 06:05:00,
2013-08-01 02:30:00,71.3,68.2,29.99,ESE,113,0.0,0.0,90,0.03,,,0.27,WUHU216HW,2013-08-01 06:30:00,
2013-08-01 02:35:00,71.3,68.2,29.99,ESE,113,0.0,0.0,90,0.03,,,0.27,WUHU216HW,2013-08-01 06:35:00,
2013-08-01 03:00:00,71.3,68.2,29.97,NE,45,0.0,0.0,90,0.00,,,0.27,WUHU216HW,2013-08-01 07:00:00,
2013-08-01 03:05:00,71.3,68.2,29.97,NE,45,0.0,0.0,90,0.00,,,0.27,WUHU216HW,2013-08-01 07:05:00,
2013-08-01 03:30:00,71.3,68.2,29.97,East,90,0.0,0.0,90,0.01,,,0.27,WUHU216HW,2013-08-01 07:30:00,
2013-08-01 03:35:00,71.3,68.2,29.97,East,90,0.0,0.0,90,0.01,,,0.27,WUHU216HW,2013-08-01 07:35:00,
2013-08-01 04:00:00,71.3,68.2,29.97,SSW,203,0.0,0.0,90,0.01,,,0.28,WUHU216HW,2013-08-01 08:00:00,
2013-08-01 04:05:00,71.3,68.2,29.97,SSW,203,0.0,0.0,90,0.01,,,0.28,WUHU216HW,2013-08-01 08:05:00,
2013-08-01 04:30:00,71.5,68.7,29.97,SE,135,0.0,0.0,91,0.00,,,0.28,WUHU216HW,2013-08-01 08:30:00,
2013-08-01 04:35:00,71.5,68.7,29.97,SE,135,0.0,0.0,91,0.00,,,0.28,WUHU216HW,2013-08-01 08:35:00,
2013-08-01 05:00:00,71.5,68.7,29.97,WSW,248,0.0,0.0,91,0.00,,,0.28,WUHU216HW,2013-08-01 09:00:00,
2013-08-01 05:05:00,71.5,68.7,29.97,WSW,248,0.0,0.0,91,0.00,,,0.28,WUHU216HW,2013-08-01 09:05:00,
2013-08-01 05:30:00,71.5,68.7,29.97,SSE,158,0.0,0.0,91,0.00,,,0.28,WUHU216HW,2013-08-01 09:30:00,
2013-08-01 05:36:00,71.5,68.7,29.97,SSE,158,0.0,0.0,91,0.00,,,0.28,WUHU216HW,2013-08-01 09:36:00,
2013-08-01 06:00:00,71.5,68.7,29.97,North,0,0.0,0.0,91,0.00,,,0.28,WUHU216HW,2013-08-01 10:00:00,
2013-08-01 06:01:00,71.5,68.7,29.97,North,0,0.0,0.0,91,0.00,,,0.28,WUHU216HW,2013-08-01 10:01:00,
2013-08-01 06:06:00,71.5,68.7,29.97,North,0,0.0,0.0,91,0.00,,,0.28,WUHU216HW,2013-08-01 10:06:00,
2013-08-01 06:30:00,71.5,68.7,29.97,ENE,68,0.0,0.0,91,0.00,,,0.28,WUHU216HW,2013-08-01 10:30:00,
2013-08-01 06:31:00,71.5,68.7,29.97,ENE,68,0.0,0.0,91,0.00,,,0.28,WUHU216HW,2013-08-01 10:31:00,
2013-08-01 06:36:00,71.5,68.7,29.97,ENE,68,0.0,0.0,91,0.00,,,0.28,WUHU216HW,2013-08-01 10:36:00,
2013-08-01 07:00:00,71.6,68.9,29.97,ENE,68,0.0,0.0,91,0.00,,,0.28,WUHU216HW,2013-08-01 11:00:00,
2013-08-01 07:01:00,71.6,68.9,29.97,ENE,68,0.0,0.0,91,0.00,,,0.28,WUHU216HW,2013-08-01 11:01:00,
2013-08-01 07:07:00,71.6,68.9,29.97,ENE,68,0.0,0.0,91,0.00,,,0.28,WUHU216HW,2013-08-01 11:07:00,
2013-08-01 07:30:00,71.6,68.9,29.97,SE,135,0.0,0.0,91,0.00,,,0.28,WUHU216HW,2013-08-01 11:30:00,
2013-08-01 07:35:00,71.6,68.9,29.97,SE,135,0.0,0.0,91,0.00,,,0.28,WUHU216HW,2013-08-01 11:35:00,
2013-08-01 08:00:00,71.8,69.0,29.97,WSW,248,0.0,0.0,91,0.00,,,0.28,WUHU216HW,2013-08-01 12:00:00,
2013-08-01 08:05:00,71.8,69.0,29.97,WSW,248,0.0,0.0,91,0.00,,,0.28,WUHU216HW,2013-08-01 12:05:00,
2013-08-01 08:30:00,72.2,69.4,29.98,NW,315,0.2,0.2,91,0.00,,,0.28,WUHU216HW,2013-08-01 12:30:00,
2013-08-01 08:31:00,72.2,69.4,29.98,NW,315,0.2,0.2,91,0.00,,,0.28,WUHU216HW,2013-08-01 12:31:00,
2013-08-01 08:36:00,72.2,69.4,29.98,NW,315,0.2,0.2,91,0.00,,,0.28,WUHU216HW,2013-08-01 12:36:00,
2013-08-01 09:00:00,72.4,69.3,29.98,South,180,0.0,0.0,90,0.00,,,0.28,WUHU216HW,2013-08-01 13:00:00,
2013-08-01 09:05:00,72.4,69.3,29.98,South,180,0.0,0.0,90,0.00,,,0.28,WUHU216HW,2013-08-01 13:05:00,
2013-08-01 09:30:00,72.9,69.8,29.98,North,0,0.0,0.0,90,0.00,,,0.28,WUHU216HW,2013-08-01 13:30:00,
2013-08-01 09:35:00,72.9,69.8,29.98,North,0,0.0,0.0,90,0.00,,,0.28,WUHU216HW,2013-08-01 13:35:00,
2013-08-01 10:00:00,73.1,70.0,29.97,ESE,113,0.9,0.9,90,0.00,,,0.28,WUHU216HW,2013-08-01 14:00:00,
2013-08-01 10:05:00,73.1,70.0,29.97,ESE,113,0.9,0.9,90,0.00,,,0.28,WUHU216HW,2013-08-01 14:05:00,
2013-08-01 10:30:00,73.8,70.7,29.97,SW,225,0.0,0.0,90,0.00,,,0.28,WUHU216HW,2013-08-01 14:30:00,
2013-08-01 10:31:00,73.8,70.7,29.97,SW,225,0.0,0.0,90,0.00,,,0.28,WUHU216HW,2013-08-01 14:31:00,
2013-08-01 10:36:00,73.8,70.7,29.97,SW,225,0.0,0.0,90,0.00,,,0.28,WUHU216HW,2013-08-01 14:36:00,
2013-08-01 11:00:00,74.0,70.9,29.97,WSW,248,0.0,0.0,90,0.00,,,0.28,WUHU216HW,2013-08-01 15:00:00,
2013-08-01 11:05:00,74.0,70.9,29.97,WSW,248,0.0,0.0,90,0.00,,,0.28,WUHU216HW,2013-08-01 15:05:00,
2013-08-01 11:30:00,74.9,71.5,29.97,North,0,0.4,0.4,89,0.00,,,0.28,WUHU216HW,2013-08-01 15:30:00,
2013-08-01 11:31:00,74.9,71.5,29.97,North,0,0.4,0.4,89,0.00,,,0.28,WUHU216HW,2013-08-01 15:31:00,
2013-08-01 11:37:00,74.9,71.5,29.97,North,0,0.4,0.4,89,0.00,,,0.28,WUHU216HW,2013-08-01 15:37:00,
2013-08-01 12:00:00,77.4,72.9,29.96,South,180,0.4,0.4,86,0.00,,,0.28,WUHU216HW,2013-08-01 16:00:00,
2013-08-01 12:01:00,77.4,72.9,29.96,South,180,0.4,0.4,86,0.00,,,0.28,WUHU216HW,2013-08-01 16:01:00,
2013-08-01 12:07:00,77.4,72.9,29.96,South,180,0.4,0.4,86,0.00,,,0.28,WUHU216HW,2013-08-01 16:07:00,
2013-08-01 12:30:00,77.6,72.7,29.97,SE,135,0.0,0.0,85,0.00,,,0.28,WUHU216HW,2013-08-01 16:30:00,
2013-08-01 12:35:00,77.6,72.7,29.97,SE,135,0.0,0.0,85,0.00,,,0.28,WUHU216HW,2013-08-01 16:35:00,
2013-08-01 13:00:00,77.9,73.1,29.95,SE,135,1.1,1.1,85,0.00,,,0.28,WUHU216HW,2013-08-01 17:00:00,
2013-08-01 13:05:00,77.9,73.1,29.95,SE,135,1.1,1.1,85,0.00,,,0.28,WUHU216HW,2013-08-01 17:05:00,
2013-08-01 13:30:00,79.6,74.0,29.95,SSE,158,0.4,0.4,83,0.00,,,0.28,WUHU216HW,2013-08-01 17:30:00,
2013-08-01 13:36:00,79.6,74.0,29.95,SSE,158,0.4,0.4,83,0.00,,,0.28,WUHU216HW,2013-08-01 17:36:00,
2013-08-01 14:00:00,82.6,76.0,29.93,West,270,1.1,1.1,80,0.00,,,0.28,WUHU216HW,2013-08-01 18:00:00,
2013-08-01 14:05:00,82.6,76.0,29.93,West,270,1.1,1.1,80,0.00,,,0.28,WUHU216HW,2013-08-01 18:05:00,
2013-08-01 14:30:00,82.4,75.3,29.93,North,0,0.4,0.4,79,0.00,,,0.28,WUHU216HW,2013-08-01 18:30:00,
2013-08-01 14:35:00,82.4,75.3,29.93,North,0,0.4,0.4,79,0.00,,,0.28,WUHU216HW,2013-08-01 18:35:00,
2013-08-01 15:00:00,84.8,76.3,29.92,North,0,0.2,0.2,76,0.00,,,0.28,WUHU216HW,2013-08-01 19:00:00,
2013-08-01 15:05:00,84.8,76.3,29.92,North,0,0.2,0.2,76,0.00,,,0.28,WUHU216HW,2013-08-01 19:05:00,
2013-08-01 15:30:00,83.5,75.5,29.92,South,180,0.2,0.2,77,0.00,,,0.28,WUHU216HW,2013-08-01 19:30:00,
2013-08-01 15:35:00,83.5,75.5,29.92,South,180,0.2,0.2,77,0.00,,,0.28,WUHU216HW,2013-08-01 19:35:00,
2013-08-01 16:00:00,84.6,75.8,29.92,SE,135,0.0,0.0,75,0.00,,,0.28,WUHU216HW,2013-08-01 20:00:00,
2013-08-01 16:05:00,84.6,75.8,29.92,SE,135,0.0,0.0,75,0.00,,,0.28,WUHU216HW,2013-08-01 20:05:00,
2013-08-01 16:30:00,82.8,75.2,29.90,SSW,203,0.0,0.0,78,0.00,,,0.28,WUHU216HW,2013-08-01 20:30:00,
2013-08-01 16:35:00,82.8,75.2,29.90,SSW,203,0.0,0.0,78,0.00,,,0.28,WUHU216HW,2013-08-01 20:35:00,
2013-08-01 17:00:00,82.6,76.0,29.90,SSW,203,0.0,0.0,80,0.00,,,0.28,WUHU216HW,2013-08-01 21:00:00,
2013-08-01 17:05:00,82.6,76.0,29.90,SSW,203,0.0,0.0,80,0.00,,,0.28,WUHU216HW,2013-08-01 21:05:00,
2013-08-01 17:30:00,83.7,76.2,29.90,SE,135,0.0,0.0,78,0.00,,,0.28,WUHU216HW,2013-08-01 21:30:00,
2013-08-01 17:35:00,83.7,76.2,29.90,SE,135,0.0,0.0,78,0.00,,,0.28,WUHU216HW,2013-08-01 21:35:00,
2013-08-01 18:00:00,84.1,76.1,29.89,NNE,23,0.0,0.0,77,0.00,,,0.28,WUHU216HW,2013-08-01 22:00:00,
2013-08-01 18:05:00,84.1,76.1,29.89,NNE,23,0.0,0.0,77,0.00,,,0.28,WUHU216HW,2013-08-01 22:05:00,
2013-08-01 18:30:00,83.2,74.8,29.90,SSW,203,0.4,0.4,76,0.00,,,0.28,WUHU216HW,2013-08-01 22:30:00,
2013-08-01 18:35:00,83.2,74.8,29.90,SSW,203,0.4,0.4,76,0.00,,,0.28,WUHU216HW,2013-08-01 22:35:00,
2013-08-01 19:00:00,82.4,74.5,29.91,ENE,68,0.2,0.2,77,0.00,,,0.28,WUHU216HW,2013-08-01 23:00:00,
2013-08-01 19:05:00,82.4,74.5,29.91,ENE,68,0.2,0.2,77,0.00,,,0.28,WUHU216HW,2013-08-01 23:05:00,
2013-08-01 19:30:00,82.1,74.6,29.92,West,270,0.0,0.0,78,0.00,,,0.28,WUHU216HW,2013-08-01 23:30:00,
2013-08-01 19:35:00,82.1,74.6,29.92,West,270,0.0,0.0,78,0.00,,,0.28,WUHU216HW,2013-08-01 23:35:00,
2013-08-01 20:00:00,81.9,74.8,29.93,South,180,0.0,0.0,79,0.00,,,0.28,WUHU216HW,2013-08-02 00:00:00,
2013-08-01 20:05:00,81.9,74.8,29.93,South,180,0.0,0.0,79,0.00,,,0.28,WUHU216HW,2013-08-02 00:05:00,
2013-08-01 20:30:00,80.5,73.0,29.94,SSW,203,0.0,0.0,78,0.00,,,0.28,WUHU216HW,2013-08-02 00:30:00,
2013-08-01 20:35:00,80.5,73.0,29.94,SSW,203,0.0,0.0,78,0.00,,,0.28,WUHU216HW,2013-08-02 00:35:00,
2013-08-01 21:00:00,79.2,72.5,29.94,SSW,203,0.0,0.0,80,0.00,,,0.28,WUHU216HW,2013-08-02 01:00:00,
2013-08-01 21:05:00,79.2,72.5,29.94,SSW,203,0.0,0.0,80,0.00,,,0.28,WUHU216HW,2013-08-02 01:05:00,
2013-08-01 21:30:00,78.1,71.8,29.95,SSW,203,0.0,0.0,81,0.00,,,0.28,WUHU216HW,2013-08-02 01:30:00,
2013-08-01 21:35:00,78.1,71.8,29.95,SSW,203,0.0,0.0,81,0.00,,,0.28,WUHU216HW,2013-08-02 01:35:00,
2013-08-01 22:00:00,77.0,71.1,29.95,WSW,248,0.7,0.7,82,0.00,,,0.28,WUHU216HW,2013-08-02 02:00:00,
2013-08-01 22:05:00,77.0,71.1,29.95,WSW,248,0.7,0.7,82,0.00,,,0.28,WUHU216HW,2013-08-02 02:05:00,
2013-08-01 22:30:00,76.5,71.3,29.95,West,270,0.0,0.0,84,0.00,,,0.28,WUHU216HW,2013-08-02 02:30:00,
2013-08-01 22:35:00,76.5,71.3,29.95,West,270,0.0,0.0,84,0.00,,,0.28,WUHU216HW,2013-08-02 02:35:00,
2013-08-01 23:00:00,75.8,71.0,29.97,NNE,23,0.0,0.0,85,0.00,,,0.28,WUHU216HW,2013-08-02 03:00:00,
2013-08-01 23:05:00,75.8,71.0,29.97,NNE,23,0.0,0.0,85,0.00,,,0.28,WUHU216HW,2013-08-02 03:05:00,
2013-08-01 23:30:00,73.6,67.9,30.00,ENE,68,1.1,1.1,82,0.00,,,0.28,WUHU216HW,2013-08-02 03:30:00,
2013-08-01 23:35:00,73.6,67.9,30.00,ENE,68,1.1,1.1,82,0.00,,,0.28,WUHU216HW,2013-08-02 03:35:00,